S-y Atmosphere — ZCGY6 — position and weather

sailwx.info

Track history (hours):
 
Tides and Currents Weather Stations Pressure Air Temp Water Temp Dewpoint Dewpoint Depression Visibility Wind Speed Wind Dir Waves Ship Positions

S-y Atmosphere

Last reported at 2014-Aug-22 04:18 UTC. Time now 2014-Aug-22 05:55 UTC.
Position N 43°31' E 006°57'.

Length 53 m; draft 4 m.

Type: Sailing vessel. MMSI: 319726000.

Date/timePositionNaut miles runAvg speedWind from/ knotsBaromVisibWave heightAir tempDewpointWater temp
2014-Aug-22 04:18N 43°31' E 006°57'0 0.0
2014-Aug-22 03:18N 43°31' E 006°57'0 0.0
2014-Aug-22 02:30N 43°31' E 006°57'0 0.0
2014-Aug-22 01:24N 43°31' E 006°57'0 0.0
2014-Aug-22 00:06N 43°31' E 006°57'0 0.0
2014-Aug-21 23:18N 43°31' E 006°57'0 0.0
2014-Aug-21 22:24N 43°31' E 006°57'0 0.0
2014-Aug-21 21:24N 43°31' E 006°57'0 0.0
2014-Aug-21 20:24N 43°31' E 006°57'0 0.0
2014-Aug-21 19:30N 43°31' E 006°57'6 5.9
2014-Aug-21 18:33N 43°25' E 006°55'1010.4
2014-Aug-21 17:33N 43°17' E 006°48'1211.6
2014-Aug-21 16:33N 43°08' E 006°37'1212.3
2014-Aug-21 15:33N 43°04' E 006°21'1212.3
2014-Aug-21 14:33N 43°00' E 006°05'1212.2
2014-Aug-21 13:33N 43°03' E 005°48'11 0.8
2014-Aug-20 23:28N 43°10' E 005°37'0 0.0
2014-Aug-20 17:31N 43°10' E 005°37'0 0.0
2014-Aug-20 14:16N 43°10' E 005°37'0 0.0
2014-Aug-20 13:28N 43°10' E 005°37'0 0.0
2014-Aug-20 03:16N 43°10' E 005°37'0 0.0
2014-Aug-19 22:16N 43°10' E 005°37'0 0.0
2014-Aug-19 15:28N 43°10' E 005°37'0 0.0
2014-Aug-19 11:31N 43°10' E 005°37'0 0.0
2014-Aug-19 10:28N 43°10' E 005°37'0 0.0
2014-Aug-19 09:24N 43°10' E 005°37'0 0.0
2014-Aug-19 08:27N 43°10' E 005°37'7 8.3
2014-Aug-19 07:33N 43°05' E 005°44'1010.4
2014-Aug-19 06:33N 43°02' E 005°58'1010.2
2014-Aug-19 05:33N 43°01' E 006°11'1 0.8
2014-Aug-19 04:33N 43°01' E 006°13'0 0.0
2014-Aug-19 03:33N 43°01' E 006°13'0 0.0
2014-Aug-19 02:34N 43°01' E 006°13'0 0.0
2014-Aug-19 01:34N 43°01' E 006°13'0 0.0
2014-Aug-19 00:33N 43°01' E 006°13'0 0.0
2014-Aug-18 23:34N 43°01' E 006°13'0 0.0
2014-Aug-18 22:34N 43°01' E 006°13'0 0.0
2014-Aug-18 21:33N 43°01' E 006°13'0 0.0
2014-Aug-18 20:33N 43°01' E 006°13'0 0.0
2014-Aug-18 19:33N 43°01' E 006°13'0 0.0
2014-Aug-18 18:34N 43°01' E 006°13'0 0.0
2014-Aug-18 17:33N 43°01' E 006°13'3 2.8
2014-Aug-18 16:33N 43°02' E 006°15'1111.4
2014-Aug-18 15:33N 43°07' E 006°30'8 7.6
2014-Aug-18 14:31N 43°11' E 006°39'0 0.0
2014-Aug-18 13:33N 43°11' E 006°39'0 0.0
2014-Aug-18 12:33N 43°11' E 006°39'0 0.3
2014-Aug-18 11:29N 43°11' E 006°39'7 7.1
2014-Aug-18 10:33N 43°17' E 006°41'1 1.4
2014-Aug-18 09:33N 43°16' E 006°39'0 0.0
2014-Aug-18 08:34N 43°16' E 006°39'0 0.0
2014-Aug-18 07:33N 43°16' E 006°39'0 0.0
2014-Aug-18 06:33N 43°16' E 006°39'0 0.0
2014-Aug-18 05:33N 43°16' E 006°39'0 0.0
2014-Aug-18 04:34N 43°16' E 006°39'0 0.0
2014-Aug-18 03:33N 43°16' E 006°39'0 0.0
2014-Aug-18 02:33N 43°16' E 006°39'0 0.0
2014-Aug-18 01:33N 43°16' E 006°39'0 0.0
2014-Aug-18 00:33N 43°16' E 006°39'0 0.0
2014-Aug-17 18:33N 43°16' E 006°39'0 0.0
2014-Aug-17 17:33N 43°16' E 006°39'0 0.0
2014-Aug-17 16:33N 43°16' E 006°39'0 0.0
2014-Aug-17 15:33N 43°16' E 006°39'0 0.0
2014-Aug-17 14:34N 43°16' E 006°39'0 0.0
2014-Aug-17 13:34N 43°16' E 006°39'0 0.0
2014-Aug-17 12:34N 43°16' E 006°39'0 0.0
2014-Aug-17 11:34N 43°16' E 006°39'0 0.0
2014-Aug-17 10:33N 43°16' E 006°39'0 0.0
2014-Aug-17 09:34N 43°16' E 006°39'0 0.0
2014-Aug-17 08:33N 43°16' E 006°39'1 0.7
2014-Aug-17 07:33N 43°17' E 006°40'1212.1
2014-Aug-17 06:33N 43°24' E 006°53'1312.7
2014-Aug-17 05:33N 43°32' E 007°07'1312.5
2014-Aug-17 04:33N 43°40' E 007°20'  
2014-Aug-12 23:05N 43°44' E 007°26'0 0.0
2014-Aug-12 22:32N 43°44' E 007°26'0 0.0
2014-Aug-12 21:29N 43°44' E 007°26'0 0.0
2014-Aug-12 20:29N 43°44' E 007°26'0 0.0
2014-Aug-12 18:32N 43°44' E 007°26'0 0.0
2014-Aug-12 17:32N 43°44' E 007°26'0 0.0
2014-Aug-12 16:29N 43°44' E 007°26'0 0.0
2014-Aug-12 15:32N 43°44' E 007°26'0 0.0
2014-Aug-12 14:26N 43°44' E 007°26'3311.4
2014-Aug-12 11:32N 43°24' E 008°02'1312.5
2014-Aug-12 10:28N 43°16' E 008°17'1212.5
2014-Aug-12 09:31N 43°09' E 008°30'1512.3
2014-Aug-12 08:19N 43°01' E 008°46'  
Track history (hours):
 
Tides and Currents Weather Stations Pressure Air Temp Water Temp Dewpoint Dewpoint Depression Visibility Wind Speed Wind Dir Waves Ship Positions

S-y Atmosphere

Last reported at 2014-Aug-22 04:18 UTC. Time now 2014-Aug-22 05:55 UTC.
Position N 43°31' E 006°57'.

Length 53 m; draft 4 m.

Type: Sailing vessel. MMSI: 319726000.

Date/timePositionNaut miles runAvg speedWind from/ knotsBaromVisibWave heightAir tempDewpointWater temp
2014-Aug-22 04:18N 43°31' E 006°57'0 0.0
2014-Aug-22 03:18N 43°31' E 006°57'0 0.0
2014-Aug-22 02:30N 43°31' E 006°57'0 0.0
2014-Aug-22 01:24N 43°31' E 006°57'0 0.0
2014-Aug-22 00:06N 43°31' E 006°57'0 0.0
2014-Aug-21 23:18N 43°31' E 006°57'0 0.0
2014-Aug-21 22:24N 43°31' E 006°57'0 0.0
2014-Aug-21 21:24N 43°31' E 006°57'0 0.0
2014-Aug-21 20:24N 43°31' E 006°57'0 0.0
2014-Aug-21 19:30N 43°31' E 006°57'6 5.9
2014-Aug-21 18:33N 43°25' E 006°55'1010.4
2014-Aug-21 17:33N 43°17' E 006°48'1211.6
2014-Aug-21 16:33N 43°08' E 006°37'1212.3
2014-Aug-21 15:33N 43°04' E 006°21'1212.3
2014-Aug-21 14:33N 43°00' E 006°05'1212.2
2014-Aug-21 13:33N 43°03' E 005°48'11 0.8
2014-Aug-20 23:28N 43°10' E 005°37'0 0.0
2014-Aug-20 17:31N 43°10' E 005°37'0 0.0
2014-Aug-20 14:16N 43°10' E 005°37'0 0.0
2014-Aug-20 13:28N 43°10' E 005°37'0 0.0
2014-Aug-20 03:16N 43°10' E 005°37'0 0.0
2014-Aug-19 22:16N 43°10' E 005°37'0 0.0
2014-Aug-19 15:28N 43°10' E 005°37'0 0.0
2014-Aug-19 11:31N 43°10' E 005°37'0 0.0
2014-Aug-19 10:28N 43°10' E 005°37'0 0.0
2014-Aug-19 09:24N 43°10' E 005°37'0 0.0
2014-Aug-19 08:27N 43°10' E 005°37'7 8.3
2014-Aug-19 07:33N 43°05' E 005°44'1010.4
2014-Aug-19 06:33N 43°02' E 005°58'1010.2
2014-Aug-19 05:33N 43°01' E 006°11'1 0.8
2014-Aug-19 04:33N 43°01' E 006°13'0 0.0
2014-Aug-19 03:33N 43°01' E 006°13'0 0.0
2014-Aug-19 02:34N 43°01' E 006°13'0 0.0
2014-Aug-19 01:34N 43°01' E 006°13'0 0.0
2014-Aug-19 00:33N 43°01' E 006°13'0 0.0
2014-Aug-18 23:34N 43°01' E 006°13'0 0.0
2014-Aug-18 22:34N 43°01' E 006°13'0 0.0
2014-Aug-18 21:33N 43°01' E 006°13'0 0.0
2014-Aug-18 20:33N 43°01' E 006°13'0 0.0
2014-Aug-18 19:33N 43°01' E 006°13'0 0.0
2014-Aug-18 18:34N 43°01' E 006°13'0 0.0
2014-Aug-18 17:33N 43°01' E 006°13'3 2.8
2014-Aug-18 16:33N 43°02' E 006°15'1111.4
2014-Aug-18 15:33N 43°07' E 006°30'8 7.6
2014-Aug-18 14:31N 43°11' E 006°39'0 0.0
2014-Aug-18 13:33N 43°11' E 006°39'0 0.0
2014-Aug-18 12:33N 43°11' E 006°39'0 0.3
2014-Aug-18 11:29N 43°11' E 006°39'7 7.1
2014-Aug-18 10:33N 43°17' E 006°41'1 1.4
2014-Aug-18 09:33N 43°16' E 006°39'0 0.0
2014-Aug-18 08:34N 43°16' E 006°39'0 0.0
2014-Aug-18 07:33N 43°16' E 006°39'0 0.0
2014-Aug-18 06:33N 43°16' E 006°39'0 0.0
2014-Aug-18 05:33N 43°16' E 006°39'0 0.0
2014-Aug-18 04:34N 43°16' E 006°39'0 0.0
2014-Aug-18 03:33N 43°16' E 006°39'0 0.0
2014-Aug-18 02:33N 43°16' E 006°39'0 0.0
2014-Aug-18 01:33N 43°16' E 006°39'0 0.0
2014-Aug-18 00:33N 43°16' E 006°39'0 0.0
2014-Aug-17 18:33N 43°16' E 006°39'0 0.0
2014-Aug-17 17:33N 43°16' E 006°39'0 0.0
2014-Aug-17 16:33N 43°16' E 006°39'0 0.0
2014-Aug-17 15:33N 43°16' E 006°39'0 0.0
2014-Aug-17 14:34N 43°16' E 006°39'0 0.0
2014-Aug-17 13:34N 43°16' E 006°39'0 0.0
2014-Aug-17 12:34N 43°16' E 006°39'0 0.0
2014-Aug-17 11:34N 43°16' E 006°39'0 0.0
2014-Aug-17 10:33N 43°16' E 006°39'0 0.0
2014-Aug-17 09:34N 43°16' E 006°39'0 0.0
2014-Aug-17 08:33N 43°16' E 006°39'1 0.7
2014-Aug-17 07:33N 43°17' E 006°40'1212.1
2014-Aug-17 06:33N 43°24' E 006°53'1312.7
2014-Aug-17 05:33N 43°32' E 007°07'1312.5
2014-Aug-17 04:33N 43°40' E 007°20'  
2014-Aug-12 23:05N 43°44' E 007°26'0 0.0
2014-Aug-12 22:32N 43°44' E 007°26'0 0.0
2014-Aug-12 21:29N 43°44' E 007°26'0 0.0
2014-Aug-12 20:29N 43°44' E 007°26'0 0.0
2014-Aug-12 18:32N 43°44' E 007°26'0 0.0
2014-Aug-12 17:32N 43°44' E 007°26'0 0.0
2014-Aug-12 16:29N 43°44' E 007°26'0 0.0
2014-Aug-12 15:32N 43°44' E 007°26'0 0.0
2014-Aug-12 14:26N 43°44' E 007°26'3311.4
2014-Aug-12 11:32N 43°24' E 008°02'1312.5
2014-Aug-12 10:28N 43°16' E 008°17'1212.5
2014-Aug-12 09:31N 43°09' E 008°30'1512.3
2014-Aug-12 08:19N 43°01' E 008°46'  

Dump ship's entire track history